sensor_id;sensor_type;location;lat;lon;timestamp;temperature;humidity
56729;DHT22;42612;52.232;7.560;2023-08-31T00:01:38;18.10;57.90
56729;DHT22;42612;52.232;7.560;2023-08-31T00:04:04;18.00;58.50
56729;DHT22;42612;52.232;7.560;2023-08-31T00:06:33;18.10;57.90
56729;DHT22;42612;52.232;7.560;2023-08-31T00:08:59;18.10;58.00
56729;DHT22;42612;52.232;7.560;2023-08-31T00:11:25;18.10;58.00
56729;DHT22;42612;52.232;7.560;2023-08-31T00:13:51;18.20;58.00
56729;DHT22;42612;52.232;7.560;2023-08-31T00:16:17;18.10;58.00
56729;DHT22;42612;52.232;7.560;2023-08-31T00:18:44;18.10;58.00
56729;DHT22;42612;52.232;7.560;2023-08-31T00:21:10;18.10;58.00
56729;DHT22;42612;52.232;7.560;2023-08-31T00:23:36;18.20;58.10
56729;DHT22;42612;52.232;7.560;2023-08-31T00:26:02;18.10;58.00
56729;DHT22;42612;52.232;7.560;2023-08-31T00:28:28;18.10;58.10
56729;DHT22;42612;52.232;7.560;2023-08-31T00:30:54;18.20;58.10
56729;DHT22;42612;52.232;7.560;2023-08-31T00:33:19;18.20;58.10
56729;DHT22;42612;52.232;7.560;2023-08-31T00:35:45;18.10;58.00
56729;DHT22;42612;52.232;7.560;2023-08-31T00:38:12;18.10;58.10
56729;DHT22;42612;52.232;7.560;2023-08-31T00:40:41;18.10;58.00
56729;DHT22;42612;52.232;7.560;2023-08-31T00:43:10;18.10;58.00
56729;DHT22;42612;52.232;7.560;2023-08-31T00:45:36;18.20;58.00
56729;DHT22;42612;52.232;7.560;2023-08-31T00:48:03;18.10;57.90
56729;DHT22;42612;52.232;7.560;2023-08-31T00:50:29;18.10;58.00
56729;DHT22;42612;52.232;7.560;2023-08-31T00:52:55;18.10;58.00
56729;DHT22;42612;52.232;7.560;2023-08-31T00:55:22;18.00;58.00
56729;DHT22;42612;52.232;7.560;2023-08-31T00:57:48;18.10;58.10
56729;DHT22;42612;52.232;7.560;2023-08-31T01:00:14;18.00;58.00
56729;DHT22;42612;52.232;7.560;2023-08-31T01:02:47;18.00;58.20
56729;DHT22;42612;52.232;7.560;2023-08-31T01:05:26;18.00;58.20
56729;DHT22;42612;52.232;7.560;2023-08-31T01:10:54;18.00;58.20
56729;DHT22;42612;52.232;7.560;2023-08-31T01:13:48;18.10;58.40
56729;DHT22;42612;52.232;7.560;2023-08-31T01:16:20;18.00;58.30
56729;DHT22;42612;52.232;7.560;2023-08-31T01:18:47;18.00;58.20
56729;DHT22;42612;52.232;7.560;2023-08-31T01:23:56;18.10;58.20
56729;DHT22;42612;52.232;7.560;2023-08-31T01:26:23;18.00;58.10
56729;DHT22;42612;52.232;7.560;2023-08-31T01:28:50;18.00;58.10
56729;DHT22;42612;52.232;7.560;2023-08-31T01:31:16;18.00;58.10
56729;DHT22;42612;52.232;7.560;2023-08-31T01:33:43;18.00;58.10
56729;DHT22;42612;52.232;7.560;2023-08-31T01:36:12;18.00;58.10
56729;DHT22;42612;52.232;7.560;2023-08-31T01:38:42;18.10;58.10
56729;DHT22;42612;52.232;7.560;2023-08-31T01:41:10;18.00;58.00
56729;DHT22;42612;52.232;7.560;2023-08-31T01:43:40;18.00;58.00
56729;DHT22;42612;52.232;7.560;2023-08-31T01:46:06;18.00;58.00
56729;DHT22;42612;52.232;7.560;2023-08-31T01:48:37;17.90;58.00
56729;DHT22;42612;52.232;7.560;2023-08-31T01:51:17;17.90;57.90
56729;DHT22;42612;52.232;7.560;2023-08-31T01:53:43;18.00;58.00
56729;DHT22;42612;52.232;7.560;2023-08-31T01:56:09;17.90;58.00
56729;DHT22;42612;52.232;7.560;2023-08-31T01:58:35;17.90;57.60
56729;DHT22;42612;52.232;7.560;2023-08-31T02:01:01;17.90;58.00
56729;DHT22;42612;52.232;7.560;2023-08-31T02:03:26;17.90;58.00
56729;DHT22;42612;52.232;7.560;2023-08-31T02:05:52;17.90;58.00
56729;DHT22;42612;52.232;7.560;2023-08-31T02:08:18;17.80;57.90
56729;DHT22;42612;52.232;7.560;2023-08-31T02:10:44;17.80;57.90
56729;DHT22;42612;52.232;7.560;2023-08-31T02:13:13;17.90;58.00
56729;DHT22;42612;52.232;7.560;2023-08-31T02:15:39;17.80;57.90
56729;DHT22;42612;52.232;7.560;2023-08-31T02:18:05;17.90;58.00
56729;DHT22;42612;52.232;7.560;2023-08-31T02:20:32;17.70;57.80
56729;DHT22;42612;52.232;7.560;2023-08-31T02:22:57;17.70;57.80
56729;DHT22;42612;52.232;7.560;2023-08-31T02:25:23;17.70;57.80
56729;DHT22;42612;52.232;7.560;2023-08-31T02:27:49;17.60;57.80
56729;DHT22;42612;52.232;7.560;2023-08-31T02:30:14;17.60;57.80
56729;DHT22;42612;52.232;7.560;2023-08-31T02:32:40;17.60;57.80
56729;DHT22;42612;52.232;7.560;2023-08-31T02:35:06;17.60;57.90
56729;DHT22;42612;52.232;7.560;2023-08-31T02:37:32;17.60;57.90
56729;DHT22;42612;52.232;7.560;2023-08-31T02:39:57;17.60;57.90
56729;DHT22;42612;52.232;7.560;2023-08-31T02:42:23;17.50;58.00
56729;DHT22;42612;52.232;7.560;2023-08-31T02:44:51;17.50;58.00
56729;DHT22;42612;52.232;7.560;2023-08-31T02:47:19;17.50;58.10
56729;DHT22;42612;52.232;7.560;2023-08-31T02:49:44;17.50;58.00
56729;DHT22;42612;52.232;7.560;2023-08-31T02:52:10;17.50;58.00
56729;DHT22;42612;52.232;7.560;2023-08-31T02:54:36;17.50;57.90
56729;DHT22;42612;52.232;7.560;2023-08-31T02:57:02;17.50;58.00
56729;DHT22;42612;52.232;7.560;2023-08-31T02:59:27;17.50;58.10
56729;DHT22;42612;52.232;7.560;2023-08-31T03:01:53;17.40;58.10
56729;DHT22;42612;52.232;7.560;2023-08-31T03:04:19;17.40;58.10
56729;DHT22;42612;52.232;7.560;2023-08-31T03:06:45;17.40;58.10
56729;DHT22;42612;52.232;7.560;2023-08-31T03:09:11;17.40;58.10
56729;DHT22;42612;52.232;7.560;2023-08-31T03:11:36;17.40;58.10
56729;DHT22;42612;52.232;7.560;2023-08-31T03:14:02;17.40;58.20
56729;DHT22;42612;52.232;7.560;2023-08-31T03:16:27;17.30;58.10
56729;DHT22;42612;52.232;7.560;2023-08-31T03:18:53;17.30;58.20
56729;DHT22;42612;52.232;7.560;2023-08-31T03:21:18;17.30;58.30
56729;DHT22;42612;52.232;7.560;2023-08-31T03:23:45;17.20;58.20
56729;DHT22;42612;52.232;7.560;2023-08-31T03:26:10;17.20;58.10
56729;DHT22;42612;52.232;7.560;2023-08-31T03:28:36;17.20;58.10
56729;DHT22;42612;52.232;7.560;2023-08-31T03:31:03;17.20;58.00
56729;DHT22;42612;52.232;7.560;2023-08-31T03:33:29;17.10;58.50
56729;DHT22;42612;52.232;7.560;2023-08-31T03:35:59;17.10;58.50
56729;DHT22;42612;52.232;7.560;2023-08-31T03:38:26;17.10;58.60
56729;DHT22;42612;52.232;7.560;2023-08-31T03:40:55;17.00;58.70
56729;DHT22;42612;52.232;7.560;2023-08-31T03:43:20;17.00;58.50
56729;DHT22;42612;52.232;7.560;2023-08-31T03:45:46;16.90;58.60
56729;DHT22;42612;52.232;7.560;2023-08-31T03:48:12;16.90;58.90
56729;DHT22;42612;52.232;7.560;2023-08-31T03:50:37;16.90;58.90
56729;DHT22;42612;52.232;7.560;2023-08-31T03:53:03;16.90;59.00
56729;DHT22;42612;52.232;7.560;2023-08-31T03:55:29;16.90;58.90
56729;DHT22;42612;52.232;7.560;2023-08-31T03:57:54;16.90;59.50
56729;DHT22;42612;52.232;7.560;2023-08-31T04:00:20;16.80;58.80
56729;DHT22;42612;52.232;7.560;2023-08-31T04:02:45;16.90;59.00
56729;DHT22;42612;52.232;7.560;2023-08-31T04:05:11;16.80;59.30
56729;DHT22;42612;52.232;7.560;2023-08-31T04:07:37;16.90;59.00
56729;DHT22;42612;52.232;7.560;2023-08-31T04:10:03;16.80;59.70
56729;DHT22;42612;52.232;7.560;2023-08-31T04:12:29;16.80;59.00
56729;DHT22;42612;52.232;7.560;2023-08-31T04:14:56;16.80;59.00
56729;DHT22;42612;52.232;7.560;2023-08-31T04:17:21;16.80;58.90
56729;DHT22;42612;52.232;7.560;2023-08-31T04:19:47;16.80;58.90
56729;DHT22;42612;52.232;7.560;2023-08-31T04:22:12;16.80;58.90
56729;DHT22;42612;52.232;7.560;2023-08-31T04:24:38;16.80;59.00
56729;DHT22;42612;52.232;7.560;2023-08-31T04:27:04;16.90;58.90
56729;DHT22;42612;52.232;7.560;2023-08-31T04:29:30;16.80;58.90
56729;DHT22;42612;52.232;7.560;2023-08-31T04:31:55;16.80;58.90
56729;DHT22;42612;52.232;7.560;2023-08-31T04:34:21;16.80;58.90
56729;DHT22;42612;52.232;7.560;2023-08-31T04:36:46;16.80;59.10
56729;DHT22;42612;52.232;7.560;2023-08-31T04:39:12;16.80;59.00
56729;DHT22;42612;52.232;7.560;2023-08-31T04:41:37;16.80;59.00
56729;DHT22;42612;52.232;7.560;2023-08-31T04:44:03;16.80;59.10
56729;DHT22;42612;52.232;7.560;2023-08-31T04:46:29;16.80;59.00
56729;DHT22;42612;52.232;7.560;2023-08-31T04:48:54;16.80;59.10
56729;DHT22;42612;52.232;7.560;2023-08-31T04:51:27;16.80;59.20
56729;DHT22;42612;52.232;7.560;2023-08-31T04:53:53;16.80;59.10
56729;DHT22;42612;52.232;7.560;2023-08-31T04:56:19;16.80;59.20
56729;DHT22;42612;52.232;7.560;2023-08-31T04:58:44;16.80;59.20
56729;DHT22;42612;52.232;7.560;2023-08-31T05:01:10;16.80;59.20
56729;DHT22;42612;52.232;7.560;2023-08-31T05:03:36;16.80;59.30
56729;DHT22;42612;52.232;7.560;2023-08-31T05:06:01;16.80;59.30
56729;DHT22;42612;52.232;7.560;2023-08-31T05:08:30;16.80;59.30
56729;DHT22;42612;52.232;7.560;2023-08-31T05:10:55;16.70;59.20
56729;DHT22;42612;52.232;7.560;2023-08-31T05:13:21;16.80;59.50
56729;DHT22;42612;52.232;7.560;2023-08-31T05:15:47;16.80;60.00
56729;DHT22;42612;52.232;7.560;2023-08-31T05:18:12;16.70;59.60
56729;DHT22;42612;52.232;7.560;2023-08-31T05:20:38;16.70;59.60
56729;DHT22;42612;52.232;7.560;2023-08-31T05:23:03;17.10;59.70
56729;DHT22;42612;52.232;7.560;2023-08-31T05:25:29;16.70;59.50
56729;DHT22;42612;52.232;7.560;2023-08-31T05:27:55;16.70;59.60
56729;DHT22;42612;52.232;7.560;2023-08-31T05:30:20;16.70;60.00
56729;DHT22;42612;52.232;7.560;2023-08-31T05:32:46;16.70;59.70
56729;DHT22;42612;52.232;7.560;2023-08-31T05:35:11;16.70;59.70
56729;DHT22;42612;52.232;7.560;2023-08-31T05:37:37;16.70;59.80
56729;DHT22;42612;52.232;7.560;2023-08-31T05:40:03;16.80;59.80
56729;DHT22;42612;52.232;7.560;2023-08-31T05:42:35;16.80;59.90
56729;DHT22;42612;52.232;7.560;2023-08-31T05:45:01;16.80;59.80
56729;DHT22;42612;52.232;7.560;2023-08-31T05:47:27;16.80;59.90
56729;DHT22;42612;52.232;7.560;2023-08-31T05:49:53;16.80;59.80
56729;DHT22;42612;52.232;7.560;2023-08-31T05:52:18;16.80;59.90
56729;DHT22;42612;52.232;7.560;2023-08-31T05:54:44;16.80;60.20
56729;DHT22;42612;52.232;7.560;2023-08-31T05:57:09;16.80;60.00
56729;DHT22;42612;52.232;7.560;2023-08-31T05:59:35;16.80;60.00
56729;DHT22;42612;52.232;7.560;2023-08-31T06:02:00;16.80;60.00
56729;DHT22;42612;52.232;7.560;2023-08-31T06:04:28;16.80;60.10
56729;DHT22;42612;52.232;7.560;2023-08-31T06:06:54;16.90;60.30
56729;DHT22;42612;52.232;7.560;2023-08-31T06:09:19;16.80;60.10
56729;DHT22;42612;52.232;7.560;2023-08-31T06:11:45;16.90;60.40
56729;DHT22;42612;52.232;7.560;2023-08-31T06:14:11;16.90;60.60
56729;DHT22;42612;52.232;7.560;2023-08-31T06:16:36;16.90;60.40
56729;DHT22;42612;52.232;7.560;2023-08-31T06:19:02;16.90;60.60
56729;DHT22;42612;52.232;7.560;2023-08-31T06:21:28;16.90;60.00
56729;DHT22;42612;52.232;7.560;2023-08-31T06:23:54;16.90;59.60
56729;DHT22;42612;52.232;7.560;2023-08-31T06:26:19;16.90;60.30
56729;DHT22;42612;52.232;7.560;2023-08-31T06:28:45;17.00;60.60
56729;DHT22;42612;52.232;7.560;2023-08-31T06:31:11;17.00;60.10
56729;DHT22;42612;52.232;7.560;2023-08-31T06:33:36;17.00;60.00
56729;DHT22;42612;52.232;7.560;2023-08-31T06:36:02;17.00;61.00
56729;DHT22;42612;52.232;7.560;2023-08-31T06:38:28;17.10;60.60
56729;DHT22;42612;52.232;7.560;2023-08-31T06:40:53;17.10;60.60
56729;DHT22;42612;52.232;7.560;2023-08-31T06:43:24;17.10;60.70
56729;DHT22;42612;52.232;7.560;2023-08-31T06:45:52;17.10;60.30
56729;DHT22;42612;52.232;7.560;2023-08-31T06:48:18;17.20;60.10
56729;DHT22;42612;52.232;7.560;2023-08-31T06:50:44;17.20;59.90
56729;DHT22;42612;52.232;7.560;2023-08-31T06:53:09;17.20;59.80
56729;DHT22;42612;52.232;7.560;2023-08-31T06:55:35;17.20;59.90
56729;DHT22;42612;52.232;7.560;2023-08-31T06:58:01;17.20;59.60
56729;DHT22;42612;52.232;7.560;2023-08-31T07:00:27;17.20;60.10
56729;DHT22;42612;52.232;7.560;2023-08-31T07:02:53;17.20;59.70
56729;DHT22;42612;52.232;7.560;2023-08-31T07:05:19;17.20;59.60
56729;DHT22;42612;52.232;7.560;2023-08-31T07:07:52;17.20;60.80
56729;DHT22;42612;52.232;7.560;2023-08-31T07:10:18;17.20;59.90
56729;DHT22;42612;52.232;7.560;2023-08-31T07:12:44;17.20;59.70
56729;DHT22;42612;52.232;7.560;2023-08-31T07:15:09;17.30;60.50
56729;DHT22;42612;52.232;7.560;2023-08-31T07:17:35;17.20;59.70
56729;DHT22;42612;52.232;7.560;2023-08-31T07:20:03;17.20;60.40
56729;DHT22;42612;52.232;7.560;2023-08-31T07:22:33;17.20;61.50
56729;DHT22;42612;52.232;7.560;2023-08-31T07:24:59;17.20;60.30
56729;DHT22;42612;52.232;7.560;2023-08-31T07:27:25;17.30;60.00
56729;DHT22;42612;52.232;7.560;2023-08-31T07:29:53;17.30;59.80
56729;DHT22;42612;52.232;7.560;2023-08-31T07:32:19;17.30;60.60
56729;DHT22;42612;52.232;7.560;2023-08-31T07:34:45;17.30;59.80
56729;DHT22;42612;52.232;7.560;2023-08-31T07:37:11;17.40;60.00
56729;DHT22;42612;52.232;7.560;2023-08-31T07:39:36;17.30;59.70
56729;DHT22;42612;52.232;7.560;2023-08-31T07:42:02;17.40;59.70
56729;DHT22;42612;52.232;7.560;2023-08-31T07:44:27;17.40;60.00
56729;DHT22;42612;52.232;7.560;2023-08-31T07:46:53;17.40;59.80
56729;DHT22;42612;52.232;7.560;2023-08-31T07:49:19;17.40;59.60
56729;DHT22;42612;52.232;7.560;2023-08-31T07:51:44;17.40;59.80
56729;DHT22;42612;52.232;7.560;2023-08-31T07:54:10;17.50;59.80
56729;DHT22;42612;52.232;7.560;2023-08-31T07:56:35;17.50;60.10
56729;DHT22;42612;52.232;7.560;2023-08-31T07:59:01;17.50;59.80
56729;DHT22;42612;52.232;7.560;2023-08-31T08:01:27;17.60;59.80
56729;DHT22;42612;52.232;7.560;2023-08-31T08:03:52;17.60;59.90
56729;DHT22;42612;52.232;7.560;2023-08-31T08:06:18;17.60;59.80
56729;DHT22;42612;52.232;7.560;2023-08-31T08:08:44;17.60;59.80
56729;DHT22;42612;52.232;7.560;2023-08-31T08:11:09;17.60;60.00
56729;DHT22;42612;52.232;7.560;2023-08-31T08:13:35;17.70;60.00
56729;DHT22;42612;52.232;7.560;2023-08-31T08:16:01;17.70;60.00
56729;DHT22;42612;52.232;7.560;2023-08-31T08:18:26;17.80;59.90
56729;DHT22;42612;52.232;7.560;2023-08-31T08:20:52;17.80;60.10
56729;DHT22;42612;52.232;7.560;2023-08-31T08:23:18;17.80;59.90
56729;DHT22;42612;52.232;7.560;2023-08-31T08:25:44;17.90;59.90
56729;DHT22;42612;52.232;7.560;2023-08-31T08:28:10;18.00;60.00
56729;DHT22;42612;52.232;7.560;2023-08-31T08:30:36;18.00;59.90
56729;DHT22;42612;52.232;7.560;2023-08-31T08:33:01;18.10;60.00
56729;DHT22;42612;52.232;7.560;2023-08-31T08:35:27;18.10;60.00
56729;DHT22;42612;52.232;7.560;2023-08-31T08:37:53;18.10;59.80
56729;DHT22;42612;52.232;7.560;2023-08-31T08:40:19;18.20;60.00
56729;DHT22;42612;52.232;7.560;2023-08-31T08:42:45;18.20;60.00
56729;DHT22;42612;52.232;7.560;2023-08-31T08:45:13;18.30;59.90
56729;DHT22;42612;52.232;7.560;2023-08-31T08:47:45;18.30;60.00
56729;DHT22;42612;52.232;7.560;2023-08-31T08:50:12;18.40;60.00
56729;DHT22;42612;52.232;7.560;2023-08-31T08:52:39;18.30;59.90
56729;DHT22;42612;52.232;7.560;2023-08-31T08:55:05;18.50;59.90
56729;DHT22;42612;52.232;7.560;2023-08-31T08:57:31;18.50;59.90
56729;DHT22;42612;52.232;7.560;2023-08-31T08:59:57;18.60;59.80
56729;DHT22;42612;52.232;7.560;2023-08-31T09:02:23;18.60;59.60
56729;DHT22;42612;52.232;7.560;2023-08-31T09:04:49;18.50;59.40
56729;DHT22;42612;52.232;7.560;2023-08-31T09:07:20;18.60;59.40
56729;DHT22;42612;52.232;7.560;2023-08-31T09:09:53;18.60;59.40
56729;DHT22;42612;52.232;7.560;2023-08-31T09:12:23;18.60;59.30
56729;DHT22;42612;52.232;7.560;2023-08-31T09:14:59;18.70;59.40
56729;DHT22;42612;52.232;7.560;2023-08-31T09:17:25;18.80;59.60
56729;DHT22;42612;52.232;7.560;2023-08-31T09:19:58;18.80;59.40
56729;DHT22;42612;52.232;7.560;2023-08-31T09:22:29;18.80;59.40
56729;DHT22;42612;52.232;7.560;2023-08-31T09:24:55;18.90;59.50
56729;DHT22;42612;52.232;7.560;2023-08-31T09:27:20;18.90;59.50
56729;DHT22;42612;52.232;7.560;2023-08-31T09:29:47;18.90;59.60
56729;DHT22;42612;52.232;7.560;2023-08-31T09:32:17;19.00;59.50
56729;DHT22;42612;52.232;7.560;2023-08-31T09:34:43;19.10;59.20
56729;DHT22;42612;52.232;7.560;2023-08-31T09:37:08;19.20;59.20
56729;DHT22;42612;52.232;7.560;2023-08-31T09:39:40;19.20;59.20
56729;DHT22;42612;52.232;7.560;2023-08-31T09:42:06;19.30;58.80
56729;DHT22;42612;52.232;7.560;2023-08-31T09:44:32;19.20;59.00
56729;DHT22;42612;52.232;7.560;2023-08-31T09:46:58;19.30;58.90
56729;DHT22;42612;52.232;7.560;2023-08-31T09:49:24;19.30;58.70
56729;DHT22;42612;52.232;7.560;2023-08-31T09:51:50;19.40;58.90
56729;DHT22;42612;52.232;7.560;2023-08-31T09:54:17;19.40;59.00
56729;DHT22;42612;52.232;7.560;2023-08-31T09:56:45;19.50;59.10
56729;DHT22;42612;52.232;7.560;2023-08-31T09:59:12;19.60;59.00
56729;DHT22;42612;52.232;7.560;2023-08-31T10:01:39;19.50;59.00
56729;DHT22;42612;52.232;7.560;2023-08-31T10:04:05;19.80;58.30
56729;DHT22;42612;52.232;7.560;2023-08-31T10:06:38;19.70;58.90
56729;DHT22;42612;52.232;7.560;2023-08-31T10:09:04;19.80;58.60
56729;DHT22;42612;52.232;7.560;2023-08-31T10:11:30;19.80;58.60
56729;DHT22;42612;52.232;7.560;2023-08-31T10:13:56;19.90;58.70
56729;DHT22;42612;52.232;7.560;2023-08-31T10:16:22;20.00;58.80
56729;DHT22;42612;52.232;7.560;2023-08-31T10:18:50;20.00;58.70
56729;DHT22;42612;52.232;7.560;2023-08-31T10:21:16;20.10;58.80
56729;DHT22;42612;52.232;7.560;2023-08-31T10:23:46;20.10;58.60
56729;DHT22;42612;52.232;7.560;2023-08-31T10:26:12;20.20;58.50
56729;DHT22;42612;52.232;7.560;2023-08-31T10:28:41;20.30;58.30
56729;DHT22;42612;52.232;7.560;2023-08-31T10:31:08;20.30;58.20
56729;DHT22;42612;52.232;7.560;2023-08-31T10:33:42;20.30;58.30
56729;DHT22;42612;52.232;7.560;2023-08-31T10:36:44;20.30;57.70
56729;DHT22;42612;52.232;7.560;2023-08-31T10:39:12;20.30;57.80
56729;DHT22;42612;52.232;7.560;2023-08-31T10:41:39;20.30;57.70
56729;DHT22;42612;52.232;7.560;2023-08-31T10:44:21;20.30;57.80
56729;DHT22;42612;52.232;7.560;2023-08-31T10:46:47;20.30;57.70
56729;DHT22;42612;52.232;7.560;2023-08-31T10:49:14;20.40;57.60
56729;DHT22;42612;52.232;7.560;2023-08-31T10:51:49;20.30;57.60
56729;DHT22;42612;52.232;7.560;2023-08-31T10:59:40;20.20;57.60
56729;DHT22;42612;52.232;7.560;2023-08-31T11:02:10;20.10;57.50
56729;DHT22;42612;52.232;7.560;2023-08-31T11:04:54;20.00;57.60
56729;DHT22;42612;52.232;7.560;2023-08-31T11:07:37;20.00;57.80
56729;DHT22;42612;52.232;7.560;2023-08-31T11:10:08;19.90;57.90
56729;DHT22;42612;52.232;7.560;2023-08-31T11:12:45;19.80;57.90
56729;DHT22;42612;52.232;7.560;2023-08-31T11:15:13;19.80;58.10
56729;DHT22;42612;52.232;7.560;2023-08-31T11:17:40;19.70;58.10
56729;DHT22;42612;52.232;7.560;2023-08-31T11:20:07;19.70;58.60
56729;DHT22;42612;52.232;7.560;2023-08-31T11:22:34;19.80;58.60
56729;DHT22;42612;52.232;7.560;2023-08-31T11:25:04;19.70;58.60
56729;DHT22;42612;52.232;7.560;2023-08-31T11:27:29;19.80;58.80
56729;DHT22;42612;52.232;7.560;2023-08-31T11:29:55;19.80;58.90
56729;DHT22;42612;52.232;7.560;2023-08-31T11:32:24;19.90;59.00
56729;DHT22;42612;52.232;7.560;2023-08-31T11:34:52;20.00;59.10
56729;DHT22;42612;52.232;7.560;2023-08-31T11:37:18;20.10;59.20
56729;DHT22;42612;52.232;7.560;2023-08-31T11:39:51;20.20;59.40
56729;DHT22;42612;52.232;7.560;2023-08-31T11:42:18;20.30;59.00
56729;DHT22;42612;52.232;7.560;2023-08-31T11:44:45;20.40;59.00
56729;DHT22;42612;52.232;7.560;2023-08-31T11:47:12;20.50;58.70
56729;DHT22;42612;52.232;7.560;2023-08-31T11:49:39;20.60;58.70
56729;DHT22;42612;52.232;7.560;2023-08-31T11:52:06;20.60;58.40
56729;DHT22;42612;52.232;7.560;2023-08-31T11:54:31;20.70;57.90
56729;DHT22;42612;52.232;7.560;2023-08-31T11:56:57;20.70;58.10
56729;DHT22;42612;52.232;7.560;2023-08-31T11:59:22;20.70;57.70
56729;DHT22;42612;52.232;7.560;2023-08-31T12:01:49;20.80;57.80
56729;DHT22;42612;52.232;7.560;2023-08-31T12:04:16;20.80;57.60
56729;DHT22;42612;52.232;7.560;2023-08-31T12:06:51;20.80;57.50
56729;DHT22;42612;52.232;7.560;2023-08-31T12:09:19;20.70;57.10
56729;DHT22;42612;52.232;7.560;2023-08-31T12:12:04;20.70;57.00
56729;DHT22;42612;52.232;7.560;2023-08-31T12:14:30;20.70;56.40
56729;DHT22;42612;52.232;7.560;2023-08-31T12:17:06;20.70;56.90
56729;DHT22;42612;52.232;7.560;2023-08-31T12:19:32;20.60;56.60
56729;DHT22;42612;52.232;7.560;2023-08-31T12:21:58;20.70;57.20
56729;DHT22;42612;52.232;7.560;2023-08-31T12:24:24;20.80;57.50
56729;DHT22;42612;52.232;7.560;2023-08-31T12:26:50;20.80;57.60
56729;DHT22;42612;52.232;7.560;2023-08-31T12:29:18;20.90;55.60
56729;DHT22;42612;52.232;7.560;2023-08-31T12:31:44;21.00;56.80
56729;DHT22;42612;52.232;7.560;2023-08-31T12:34:10;21.00;56.90
56729;DHT22;42612;52.232;7.560;2023-08-31T12:36:36;21.10;57.10
56729;DHT22;42612;52.232;7.560;2023-08-31T12:39:09;21.00;56.80
56729;DHT22;42612;52.232;7.560;2023-08-31T12:41:36;20.90;56.90
56729;DHT22;42612;52.232;7.560;2023-08-31T12:44:02;20.90;56.40
56729;DHT22;42612;52.232;7.560;2023-08-31T12:46:29;21.00;56.50
56729;DHT22;42612;52.232;7.560;2023-08-31T12:48:55;21.00;56.60
56729;DHT22;42612;52.232;7.560;2023-08-31T12:51:20;21.00;56.90
56729;DHT22;42612;52.232;7.560;2023-08-31T12:53:46;21.00;56.90
56729;DHT22;42612;52.232;7.560;2023-08-31T12:56:12;21.10;57.20
56729;DHT22;42612;52.232;7.560;2023-08-31T12:58:38;21.10;56.90
56729;DHT22;42612;52.232;7.560;2023-08-31T13:01:04;21.20;56.80
56729;DHT22;42612;52.232;7.560;2023-08-31T13:03:30;21.30;56.80
56729;DHT22;42612;52.232;7.560;2023-08-31T13:05:55;21.40;56.90
56729;DHT22;42612;52.232;7.560;2023-08-31T13:08:21;21.50;56.80
56729;DHT22;42612;52.232;7.560;2023-08-31T13:10:53;21.60;56.90
56729;DHT22;42612;52.232;7.560;2023-08-31T13:13:20;21.70;56.90
56729;DHT22;42612;52.232;7.560;2023-08-31T13:15:46;21.80;56.70
56729;DHT22;42612;52.232;7.560;2023-08-31T13:18:12;21.90;56.30
56729;DHT22;42612;52.232;7.560;2023-08-31T13:20:38;22.00;55.90
56729;DHT22;42612;52.232;7.560;2023-08-31T13:23:04;22.10;56.20
56729;DHT22;42612;52.232;7.560;2023-08-31T13:25:30;22.20;56.20
56729;DHT22;42612;52.232;7.560;2023-08-31T13:27:56;22.20;55.90
56729;DHT22;42612;52.232;7.560;2023-08-31T13:30:22;22.20;55.60
56729;DHT22;42612;52.232;7.560;2023-08-31T13:32:48;22.20;55.60
56729;DHT22;42612;52.232;7.560;2023-08-31T13:35:13;22.10;55.40
56729;DHT22;42612;52.232;7.560;2023-08-31T13:37:39;22.10;55.30
56729;DHT22;42612;52.232;7.560;2023-08-31T13:40:05;22.10;55.50
56729;DHT22;42612;52.232;7.560;2023-08-31T13:42:33;22.10;55.70
56729;DHT22;42612;52.232;7.560;2023-08-31T13:44:59;22.00;55.40
56729;DHT22;42612;52.232;7.560;2023-08-31T13:47:25;22.00;55.20
56729;DHT22;42612;52.232;7.560;2023-08-31T13:49:50;21.90;55.00
56729;DHT22;42612;52.232;7.560;2023-08-31T13:52:16;21.90;54.70
56729;DHT22;42612;52.232;7.560;2023-08-31T13:54:42;21.80;54.60
56729;DHT22;42612;52.232;7.560;2023-08-31T13:57:07;21.80;54.50
56729;DHT22;42612;52.232;7.560;2023-08-31T13:59:33;21.70;54.50
56729;DHT22;42612;52.232;7.560;2023-08-31T14:01:58;21.70;54.60
56729;DHT22;42612;52.232;7.560;2023-08-31T14:04:24;21.70;54.60
56729;DHT22;42612;52.232;7.560;2023-08-31T14:06:49;21.60;54.50
56729;DHT22;42612;52.232;7.560;2023-08-31T14:09:15;21.60;54.60
56729;DHT22;42612;52.232;7.560;2023-08-31T14:11:42;21.60;55.00
56729;DHT22;42612;52.232;7.560;2023-08-31T14:14:07;21.60;55.30
56729;DHT22;42612;52.232;7.560;2023-08-31T14:16:36;21.70;55.20
56729;DHT22;42612;52.232;7.560;2023-08-31T14:19:03;21.70;55.20
56729;DHT22;42612;52.232;7.560;2023-08-31T14:21:29;21.80;55.40
56729;DHT22;42612;52.232;7.560;2023-08-31T14:23:55;21.80;54.80
56729;DHT22;42612;52.232;7.560;2023-08-31T14:26:21;21.80;54.80
56729;DHT22;42612;52.232;7.560;2023-08-31T14:28:49;21.80;54.50
56729;DHT22;42612;52.232;7.560;2023-08-31T14:31:18;21.90;54.60
56729;DHT22;42612;52.232;7.560;2023-08-31T14:33:44;21.80;54.80
56729;DHT22;42612;52.232;7.560;2023-08-31T14:36:10;21.80;54.70
56729;DHT22;42612;52.232;7.560;2023-08-31T14:38:36;21.80;54.70
56729;DHT22;42612;52.232;7.560;2023-08-31T14:41:03;21.70;54.50
56729;DHT22;42612;52.232;7.560;2023-08-31T14:43:32;21.70;54.70
56729;DHT22;42612;52.232;7.560;2023-08-31T14:45:58;21.70;54.60
56729;DHT22;42612;52.232;7.560;2023-08-31T14:48:26;21.60;54.30
56729;DHT22;42612;52.232;7.560;2023-08-31T14:50:52;21.50;54.70
56729;DHT22;42612;52.232;7.560;2023-08-31T14:53:18;21.40;54.60
56729;DHT22;42612;52.232;7.560;2023-08-31T14:55:50;21.40;54.60
56729;DHT22;42612;52.232;7.560;2023-08-31T14:58:16;21.30;54.80
56729;DHT22;42612;52.232;7.560;2023-08-31T15:00:42;21.20;54.60
56729;DHT22;42612;52.232;7.560;2023-08-31T15:03:10;21.20;54.80
56729;DHT22;42612;52.232;7.560;2023-08-31T15:05:36;21.20;55.10
56729;DHT22;42612;52.232;7.560;2023-08-31T15:08:05;21.20;55.30
56729;DHT22;42612;52.232;7.560;2023-08-31T15:10:31;21.20;55.20
56729;DHT22;42612;52.232;7.560;2023-08-31T15:12:57;21.20;55.50
56729;DHT22;42612;52.232;7.560;2023-08-31T15:15:25;21.30;55.70
56729;DHT22;42612;52.232;7.560;2023-08-31T15:17:51;21.40;56.50
56729;DHT22;42612;52.232;7.560;2023-08-31T15:20:17;21.50;55.80
56729;DHT22;42612;52.232;7.560;2023-08-31T15:22:43;21.60;55.60
56729;DHT22;42612;52.232;7.560;2023-08-31T15:25:08;21.70;55.60
56729;DHT22;42612;52.232;7.560;2023-08-31T15:27:34;21.80;55.70
56729;DHT22;42612;52.232;7.560;2023-08-31T15:30:00;22.00;55.50
56729;DHT22;42612;52.232;7.560;2023-08-31T15:32:25;22.10;56.40
56729;DHT22;42612;52.232;7.560;2023-08-31T15:34:51;22.20;55.50
56729;DHT22;42612;52.232;7.560;2023-08-31T15:37:17;22.40;55.50
56729;DHT22;42612;52.232;7.560;2023-08-31T15:39:43;22.60;55.50